sensor_id;sensor_type;location;lat;lon;timestamp;temperature;humidity
42099;DHT22;27758;55.900;8.516;2022-10-16T00:00:42;11.80;99.90
42099;DHT22;27758;55.900;8.516;2022-10-16T00:03:08;11.80;99.90
42099;DHT22;27758;55.900;8.516;2022-10-16T00:05:44;11.90;99.90
42099;DHT22;27758;55.900;8.516;2022-10-16T00:08:11;11.90;99.90
42099;DHT22;27758;55.900;8.516;2022-10-16T00:10:38;11.90;99.90
42099;DHT22;27758;55.900;8.516;2022-10-16T00:13:05;12.00;99.90
42099;DHT22;27758;55.900;8.516;2022-10-16T00:15:34;11.90;99.90
42099;DHT22;27758;55.900;8.516;2022-10-16T00:18:02;11.90;99.90
42099;DHT22;27758;55.900;8.516;2022-10-16T00:20:28;12.00;99.90
42099;DHT22;27758;55.900;8.516;2022-10-16T00:22:54;11.90;99.90
42099;DHT22;27758;55.900;8.516;2022-10-16T00:25:20;11.90;99.90
42099;DHT22;27758;55.900;8.516;2022-10-16T00:27:46;11.90;99.90
42099;DHT22;27758;55.900;8.516;2022-10-16T00:30:12;11.90;99.90
42099;DHT22;27758;55.900;8.516;2022-10-16T00:32:38;11.90;99.90
42099;DHT22;27758;55.900;8.516;2022-10-16T00:35:04;11.80;99.90
42099;DHT22;27758;55.900;8.516;2022-10-16T00:37:30;11.80;99.90
42099;DHT22;27758;55.900;8.516;2022-10-16T00:39:56;11.80;99.90
42099;DHT22;27758;55.900;8.516;2022-10-16T00:42:22;11.80;99.90
42099;DHT22;27758;55.900;8.516;2022-10-16T00:44:53;11.80;99.90
42099;DHT22;27758;55.900;8.516;2022-10-16T00:47:30;11.70;99.90
42099;DHT22;27758;55.900;8.516;2022-10-16T00:52:39;11.70;99.90
42099;DHT22;27758;55.900;8.516;2022-10-16T00:55:08;11.70;99.90
42099;DHT22;27758;55.900;8.516;2022-10-16T00:57:35;11.60;99.90
42099;DHT22;27758;55.900;8.516;2022-10-16T01:00:04;11.60;99.90
42099;DHT22;27758;55.900;8.516;2022-10-16T01:02:30;11.60;99.90
42099;DHT22;27758;55.900;8.516;2022-10-16T01:04:56;11.60;99.90
42099;DHT22;27758;55.900;8.516;2022-10-16T01:12:52;11.60;99.90
42099;DHT22;27758;55.900;8.516;2022-10-16T01:17:53;11.50;99.90
42099;DHT22;27758;55.900;8.516;2022-10-16T01:20:29;11.50;99.90
42099;DHT22;27758;55.900;8.516;2022-10-16T01:26:12;11.50;99.90
42099;DHT22;27758;55.900;8.516;2022-10-16T01:28:54;11.60;99.90
42099;DHT22;27758;55.900;8.516;2022-10-16T01:31:24;11.60;99.90
42099;DHT22;27758;55.900;8.516;2022-10-16T01:34:00;11.60;99.90
42099;DHT22;27758;55.900;8.516;2022-10-16T01:36:31;11.50;99.90
42099;DHT22;27758;55.900;8.516;2022-10-16T01:39:01;11.50;99.90
42099;DHT22;27758;55.900;8.516;2022-10-16T01:41:36;11.50;99.90
42099;DHT22;27758;55.900;8.516;2022-10-16T01:44:14;11.50;99.90
42099;DHT22;27758;55.900;8.516;2022-10-16T01:46:44;11.50;99.90
42099;DHT22;27758;55.900;8.516;2022-10-16T01:49:11;11.40;99.90
42099;DHT22;27758;55.900;8.516;2022-10-16T01:51:38;11.50;99.90
42099;DHT22;27758;55.900;8.516;2022-10-16T01:54:08;11.50;99.90
42099;DHT22;27758;55.900;8.516;2022-10-16T01:56:34;11.50;99.90
42099;DHT22;27758;55.900;8.516;2022-10-16T01:59:16;11.50;99.90
42099;DHT22;27758;55.900;8.516;2022-10-16T02:01:52;11.50;99.90
42099;DHT22;27758;55.900;8.516;2022-10-16T02:06:56;11.60;99.90
42099;DHT22;27758;55.900;8.516;2022-10-16T02:09:22;11.60;99.90
42099;DHT22;27758;55.900;8.516;2022-10-16T02:11:49;11.60;99.90
42099;DHT22;27758;55.900;8.516;2022-10-16T02:14:16;11.60;99.90
42099;DHT22;27758;55.900;8.516;2022-10-16T02:16:44;11.50;99.90
42099;DHT22;27758;55.900;8.516;2022-10-16T02:19:12;11.60;99.90
42099;DHT22;27758;55.900;8.516;2022-10-16T02:21:51;11.60;99.90
42099;DHT22;27758;55.900;8.516;2022-10-16T02:29:41;11.70;99.90
42099;DHT22;27758;55.900;8.516;2022-10-16T02:32:16;11.70;99.90
42099;DHT22;27758;55.900;8.516;2022-10-16T02:34:44;11.70;99.90
42099;DHT22;27758;55.900;8.516;2022-10-16T02:37:10;11.70;99.90
42099;DHT22;27758;55.900;8.516;2022-10-16T02:39:37;11.70;99.90
42099;DHT22;27758;55.900;8.516;2022-10-16T02:42:04;11.60;99.90
42099;DHT22;27758;55.900;8.516;2022-10-16T02:44:30;11.70;99.90
42099;DHT22;27758;55.900;8.516;2022-10-16T02:46:55;11.70;99.90
42099;DHT22;27758;55.900;8.516;2022-10-16T02:49:21;11.70;99.90
42099;DHT22;27758;55.900;8.516;2022-10-16T02:51:47;11.70;99.90
42099;DHT22;27758;55.900;8.516;2022-10-16T02:54:13;11.70;99.90
42099;DHT22;27758;55.900;8.516;2022-10-16T02:56:38;11.70;99.90
42099;DHT22;27758;55.900;8.516;2022-10-16T02:59:04;11.60;99.90
42099;DHT22;27758;55.900;8.516;2022-10-16T03:01:30;11.60;99.90
42099;DHT22;27758;55.900;8.516;2022-10-16T03:03:56;11.60;99.90
42099;DHT22;27758;55.900;8.516;2022-10-16T03:06:21;11.60;99.90
42099;DHT22;27758;55.900;8.516;2022-10-16T03:08:47;11.60;99.90
42099;DHT22;27758;55.900;8.516;2022-10-16T03:11:13;11.60;99.90
42099;DHT22;27758;55.900;8.516;2022-10-16T03:13:39;11.60;99.90
42099;DHT22;27758;55.900;8.516;2022-10-16T03:16:05;11.60;99.90
42099;DHT22;27758;55.900;8.516;2022-10-16T03:18:31;11.60;99.90
42099;DHT22;27758;55.900;8.516;2022-10-16T03:20:56;11.60;99.90
42099;DHT22;27758;55.900;8.516;2022-10-16T03:23:22;11.60;99.90
42099;DHT22;27758;55.900;8.516;2022-10-16T03:25:50;11.50;99.90
42099;DHT22;27758;55.900;8.516;2022-10-16T03:28:16;11.50;99.90
42099;DHT22;27758;55.900;8.516;2022-10-16T03:30:43;11.50;99.90
42099;DHT22;27758;55.900;8.516;2022-10-16T03:33:09;11.50;99.90
42099;DHT22;27758;55.900;8.516;2022-10-16T03:35:35;11.50;99.90
42099;DHT22;27758;55.900;8.516;2022-10-16T03:38:01;11.50;99.90
42099;DHT22;27758;55.900;8.516;2022-10-16T03:40:26;11.50;99.90
42099;DHT22;27758;55.900;8.516;2022-10-16T03:42:52;11.40;99.90
42099;DHT22;27758;55.900;8.516;2022-10-16T03:45:20;11.50;99.90
42099;DHT22;27758;55.900;8.516;2022-10-16T03:47:46;11.40;99.90
42099;DHT22;27758;55.900;8.516;2022-10-16T03:50:12;11.50;99.90
42099;DHT22;27758;55.900;8.516;2022-10-16T03:52:38;11.50;99.90
42099;DHT22;27758;55.900;8.516;2022-10-16T03:55:04;11.40;99.90
42099;DHT22;27758;55.900;8.516;2022-10-16T03:57:31;11.50;99.90
42099;DHT22;27758;55.900;8.516;2022-10-16T03:59:57;11.50;99.90
42099;DHT22;27758;55.900;8.516;2022-10-16T04:02:22;11.50;99.90
42099;DHT22;27758;55.900;8.516;2022-10-16T04:04:48;11.50;99.90
42099;DHT22;27758;55.900;8.516;2022-10-16T04:07:14;11.50;99.90
42099;DHT22;27758;55.900;8.516;2022-10-16T04:09:39;11.50;99.90
42099;DHT22;27758;55.900;8.516;2022-10-16T04:12:05;11.50;99.90
42099;DHT22;27758;55.900;8.516;2022-10-16T04:14:31;11.40;99.90
42099;DHT22;27758;55.900;8.516;2022-10-16T04:16:57;11.40;99.90
42099;DHT22;27758;55.900;8.516;2022-10-16T04:19:22;11.40;99.90
42099;DHT22;27758;55.900;8.516;2022-10-16T04:21:48;11.40;99.90
42099;DHT22;27758;55.900;8.516;2022-10-16T04:24:14;11.30;99.90
42099;DHT22;27758;55.900;8.516;2022-10-16T04:26:40;11.30;99.90
42099;DHT22;27758;55.900;8.516;2022-10-16T04:29:05;11.30;99.90
42099;DHT22;27758;55.900;8.516;2022-10-16T04:31:33;11.30;99.90
42099;DHT22;27758;55.900;8.516;2022-10-16T04:33:58;11.30;99.90
42099;DHT22;27758;55.900;8.516;2022-10-16T04:36:24;11.30;99.90
42099;DHT22;27758;55.900;8.516;2022-10-16T04:38:50;11.30;99.90
42099;DHT22;27758;55.900;8.516;2022-10-16T04:41:15;11.30;99.90
42099;DHT22;27758;55.900;8.516;2022-10-16T04:43:41;11.30;99.90
42099;DHT22;27758;55.900;8.516;2022-10-16T04:46:07;11.30;99.90
42099;DHT22;27758;55.900;8.516;2022-10-16T04:48:33;11.30;99.90
42099;DHT22;27758;55.900;8.516;2022-10-16T04:50:59;11.30;99.90
42099;DHT22;27758;55.900;8.516;2022-10-16T04:53:25;11.30;99.90
42099;DHT22;27758;55.900;8.516;2022-10-16T04:55:51;11.30;99.90
42099;DHT22;27758;55.900;8.516;2022-10-16T04:58:17;11.30;99.90
42099;DHT22;27758;55.900;8.516;2022-10-16T05:00:44;11.40;99.90
42099;DHT22;27758;55.900;8.516;2022-10-16T05:03:10;11.50;99.90
42099;DHT22;27758;55.900;8.516;2022-10-16T05:05:36;11.50;99.90
42099;DHT22;27758;55.900;8.516;2022-10-16T05:08:02;11.50;99.90
42099;DHT22;27758;55.900;8.516;2022-10-16T05:10:28;11.60;99.90
42099;DHT22;27758;55.900;8.516;2022-10-16T05:12:54;11.60;99.90
42099;DHT22;27758;55.900;8.516;2022-10-16T05:15:20;11.60;99.90
42099;DHT22;27758;55.900;8.516;2022-10-16T05:17:45;11.60;99.90
42099;DHT22;27758;55.900;8.516;2022-10-16T05:20:13;11.70;99.90
42099;DHT22;27758;55.900;8.516;2022-10-16T05:22:39;11.70;99.90
42099;DHT22;27758;55.900;8.516;2022-10-16T05:25:05;11.70;99.90
42099;DHT22;27758;55.900;8.516;2022-10-16T05:27:30;11.70;99.90
42099;DHT22;27758;55.900;8.516;2022-10-16T05:29:56;11.70;99.90
42099;DHT22;27758;55.900;8.516;2022-10-16T05:32:22;11.70;99.90
42099;DHT22;27758;55.900;8.516;2022-10-16T05:34:48;11.70;99.90
42099;DHT22;27758;55.900;8.516;2022-10-16T05:37:14;11.80;99.90
42099;DHT22;27758;55.900;8.516;2022-10-16T05:39:40;11.80;99.90
42099;DHT22;27758;55.900;8.516;2022-10-16T05:42:06;11.80;99.90
42099;DHT22;27758;55.900;8.516;2022-10-16T05:44:32;11.90;99.90
42099;DHT22;27758;55.900;8.516;2022-10-16T05:46:58;11.90;99.90
42099;DHT22;27758;55.900;8.516;2022-10-16T05:49:24;11.90;99.90
42099;DHT22;27758;55.900;8.516;2022-10-16T05:51:49;12.00;99.90
42099;DHT22;27758;55.900;8.516;2022-10-16T05:54:15;12.00;99.90
42099;DHT22;27758;55.900;8.516;2022-10-16T05:56:41;12.00;99.90
42099;DHT22;27758;55.900;8.516;2022-10-16T05:59:07;12.10;99.90
42099;DHT22;27758;55.900;8.516;2022-10-16T06:01:33;12.10;99.90
42099;DHT22;27758;55.900;8.516;2022-10-16T06:03:59;12.10;99.90
42099;DHT22;27758;55.900;8.516;2022-10-16T06:06:26;12.10;99.90
42099;DHT22;27758;55.900;8.516;2022-10-16T06:08:54;12.20;99.90
42099;DHT22;27758;55.900;8.516;2022-10-16T06:11:25;12.20;99.90
42099;DHT22;27758;55.900;8.516;2022-10-16T06:13:57;12.30;99.90
42099;DHT22;27758;55.900;8.516;2022-10-16T06:16:24;12.40;99.90
42099;DHT22;27758;55.900;8.516;2022-10-16T06:18:51;12.40;99.90
42099;DHT22;27758;55.900;8.516;2022-10-16T06:21:22;12.40;99.90
42099;DHT22;27758;55.900;8.516;2022-10-16T06:23:50;12.40;99.90
42099;DHT22;27758;55.900;8.516;2022-10-16T06:26:19;12.40;99.90
42099;DHT22;27758;55.900;8.516;2022-10-16T06:28:46;12.40;99.90
42099;DHT22;27758;55.900;8.516;2022-10-16T06:31:13;12.40;99.90
42099;DHT22;27758;55.900;8.516;2022-10-16T06:33:39;12.40;99.90
42099;DHT22;27758;55.900;8.516;2022-10-16T06:36:11;12.40;99.90
42099;DHT22;27758;55.900;8.516;2022-10-16T06:38:37;12.30;99.90
42099;DHT22;27758;55.900;8.516;2022-10-16T06:41:04;12.30;99.90
42099;DHT22;27758;55.900;8.516;2022-10-16T06:43:31;12.30;99.90
42099;DHT22;27758;55.900;8.516;2022-10-16T06:45:58;12.40;99.90
42099;DHT22;27758;55.900;8.516;2022-10-16T06:48:25;12.40;99.90
42099;DHT22;27758;55.900;8.516;2022-10-16T06:50:57;12.50;99.90
42099;DHT22;27758;55.900;8.516;2022-10-16T06:53:24;12.60;99.90
42099;DHT22;27758;55.900;8.516;2022-10-16T06:55:50;12.80;99.90
42099;DHT22;27758;55.900;8.516;2022-10-16T06:58:16;12.90;99.90
42099;DHT22;27758;55.900;8.516;2022-10-16T07:00:41;13.10;99.90
42099;DHT22;27758;55.900;8.516;2022-10-16T07:03:07;13.10;99.90
42099;DHT22;27758;55.900;8.516;2022-10-16T07:05:40;13.10;99.90
42099;DHT22;27758;55.900;8.516;2022-10-16T07:08:07;13.00;99.90
42099;DHT22;27758;55.900;8.516;2022-10-16T07:10:33;13.00;99.90
42099;DHT22;27758;55.900;8.516;2022-10-16T07:12:59;12.90;99.90
42099;DHT22;27758;55.900;8.516;2022-10-16T07:15:26;12.90;99.90
42099;DHT22;27758;55.900;8.516;2022-10-16T07:17:51;12.90;99.90
42099;DHT22;27758;55.900;8.516;2022-10-16T07:20:17;12.90;99.90
42099;DHT22;27758;55.900;8.516;2022-10-16T07:22:43;12.90;99.90
42099;DHT22;27758;55.900;8.516;2022-10-16T07:25:09;12.90;99.90
42099;DHT22;27758;55.900;8.516;2022-10-16T07:27:35;12.90;99.90
42099;DHT22;27758;55.900;8.516;2022-10-16T07:30:01;12.70;99.90
42099;DHT22;27758;55.900;8.516;2022-10-16T07:32:27;12.60;99.90
42099;DHT22;27758;55.900;8.516;2022-10-16T07:34:53;12.40;99.90
42099;DHT22;27758;55.900;8.516;2022-10-16T07:37:19;12.40;99.90
42099;DHT22;27758;55.900;8.516;2022-10-16T07:39:45;12.40;99.90
42099;DHT22;27758;55.900;8.516;2022-10-16T07:42:10;12.30;99.90
42099;DHT22;27758;55.900;8.516;2022-10-16T07:44:36;12.30;99.90
42099;DHT22;27758;55.900;8.516;2022-10-16T07:47:02;12.40;99.90
42099;DHT22;27758;55.900;8.516;2022-10-16T07:49:28;12.40;99.90
42099;DHT22;27758;55.900;8.516;2022-10-16T07:51:54;12.60;99.90
42099;DHT22;27758;55.900;8.516;2022-10-16T07:54:19;12.90;99.90
42099;DHT22;27758;55.900;8.516;2022-10-16T07:56:45;13.00;99.90
42099;DHT22;27758;55.900;8.516;2022-10-16T07:59:11;13.30;99.90
42099;DHT22;27758;55.900;8.516;2022-10-16T08:01:37;13.60;99.90
42099;DHT22;27758;55.900;8.516;2022-10-16T08:04:03;13.90;99.90
42099;DHT22;27758;55.900;8.516;2022-10-16T08:06:28;13.90;99.90
42099;DHT22;27758;55.900;8.516;2022-10-16T08:08:57;14.10;99.90
42099;DHT22;27758;55.900;8.516;2022-10-16T08:11:25;14.40;99.90
42099;DHT22;27758;55.900;8.516;2022-10-16T08:13:51;14.70;99.90
42099;DHT22;27758;55.900;8.516;2022-10-16T08:16:17;14.90;99.90
42099;DHT22;27758;55.900;8.516;2022-10-16T08:18:43;15.00;99.90
42099;DHT22;27758;55.900;8.516;2022-10-16T08:21:14;15.10;99.90
42099;DHT22;27758;55.900;8.516;2022-10-16T08:23:40;15.30;99.90
42099;DHT22;27758;55.900;8.516;2022-10-16T08:26:08;15.50;99.90
42099;DHT22;27758;55.900;8.516;2022-10-16T08:28:34;15.70;99.90
42099;DHT22;27758;55.900;8.516;2022-10-16T08:31:08;15.80;99.90
42099;DHT22;27758;55.900;8.516;2022-10-16T08:33:35;15.90;99.90
42099;DHT22;27758;55.900;8.516;2022-10-16T08:36:02;15.80;99.90
42099;DHT22;27758;55.900;8.516;2022-10-16T08:38:27;15.50;99.90
42099;DHT22;27758;55.900;8.516;2022-10-16T08:40:57;15.20;99.90
42099;DHT22;27758;55.900;8.516;2022-10-16T08:43:39;14.90;99.90
42099;DHT22;27758;55.900;8.516;2022-10-16T08:48:51;14.60;99.90
42099;DHT22;27758;55.900;8.516;2022-10-16T08:51:32;14.50;99.90
42099;DHT22;27758;55.900;8.516;2022-10-16T08:54:32;14.50;99.90
42099;DHT22;27758;55.900;8.516;2022-10-16T08:57:21;14.40;99.90
42099;DHT22;27758;55.900;8.516;2022-10-16T08:59:47;14.40;99.90
42099;DHT22;27758;55.900;8.516;2022-10-16T09:02:32;14.60;99.90
42099;DHT22;27758;55.900;8.516;2022-10-16T09:05:21;14.70;99.90
42099;DHT22;27758;55.900;8.516;2022-10-16T09:07:58;15.20;99.90
42099;DHT22;27758;55.900;8.516;2022-10-16T09:13:37;16.80;99.90
42099;DHT22;27758;55.900;8.516;2022-10-16T09:21:28;16.70;99.90
42099;DHT22;27758;55.900;8.516;2022-10-16T09:23:59;16.30;99.90
42099;DHT22;27758;55.900;8.516;2022-10-16T09:26:29;16.00;99.90
42099;DHT22;27758;55.900;8.516;2022-10-16T09:28:55;16.10;99.90
42099;DHT22;27758;55.900;8.516;2022-10-16T09:31:22;16.30;99.90
42099;DHT22;27758;55.900;8.516;2022-10-16T09:33:58;16.90;99.90
42099;DHT22;27758;55.900;8.516;2022-10-16T09:36:26;17.20;99.90
42099;DHT22;27758;55.900;8.516;2022-10-16T09:39:03;17.40;99.90
42099;DHT22;27758;55.900;8.516;2022-10-16T09:41:29;17.10;99.90
42099;DHT22;27758;55.900;8.516;2022-10-16T09:43:57;16.80;99.90
42099;DHT22;27758;55.900;8.516;2022-10-16T09:48:59;17.00;99.90
42099;DHT22;27758;55.900;8.516;2022-10-16T09:51:28;16.90;99.90
42099;DHT22;27758;55.900;8.516;2022-10-16T09:54:00;16.40;99.90
42099;DHT22;27758;55.900;8.516;2022-10-16T09:56:34;15.80;99.90
42099;DHT22;27758;55.900;8.516;2022-10-16T09:59:12;14.80;99.90
42099;DHT22;27758;55.900;8.516;2022-10-16T10:01:47;14.20;99.90
42099;DHT22;27758;55.900;8.516;2022-10-16T10:04:14;13.90;99.90
42099;DHT22;27758;55.900;8.516;2022-10-16T10:06:45;13.80;99.90
42099;DHT22;27758;55.900;8.516;2022-10-16T10:11:46;14.20;99.90
42099;DHT22;27758;55.900;8.516;2022-10-16T10:14:31;14.20;99.90
42099;DHT22;27758;55.900;8.516;2022-10-16T10:19:49;13.90;99.90
42099;DHT22;27758;55.900;8.516;2022-10-16T10:22:41;13.70;99.90
42099;DHT22;27758;55.900;8.516;2022-10-16T10:35:54;13.60;99.90
42099;DHT22;27758;55.900;8.516;2022-10-16T10:38:27;14.40;99.90
42099;DHT22;27758;55.900;8.516;2022-10-16T10:41:02;15.30;99.90
42099;DHT22;27758;55.900;8.516;2022-10-16T10:46:04;16.80;99.90
42099;DHT22;27758;55.900;8.516;2022-10-16T10:57:02;17.40;99.90
42099;DHT22;27758;55.900;8.516;2022-10-16T11:07:27;17.90;99.90
42099;DHT22;27758;55.900;8.516;2022-10-16T11:09:59;18.20;99.90
42099;DHT22;27758;55.900;8.516;2022-10-16T11:12:37;18.20;99.90
42099;DHT22;27758;55.900;8.516;2022-10-16T11:15:13;18.50;99.90
42099;DHT22;27758;55.900;8.516;2022-10-16T11:17:43;18.40;99.90
42099;DHT22;27758;55.900;8.516;2022-10-16T11:20:23;18.60;99.90
42099;DHT22;27758;55.900;8.516;2022-10-16T11:22:54;18.50;99.90
42099;DHT22;27758;55.900;8.516;2022-10-16T11:28:19;18.10;99.90
42099;DHT22;27758;55.900;8.516;2022-10-16T11:31:11;17.70;99.90
42099;DHT22;27758;55.900;8.516;2022-10-16T11:36:38;16.90;99.90
42099;DHT22;27758;55.900;8.516;2022-10-16T11:41:44;15.90;99.90
42099;DHT22;27758;55.900;8.516;2022-10-16T11:49:32;15.70;99.90
42099;DHT22;27758;55.900;8.516;2022-10-16T11:52:15;15.70;99.90
42099;DHT22;27758;55.900;8.516;2022-10-16T11:54:50;15.70;99.90
42099;DHT22;27758;55.900;8.516;2022-10-16T11:57:32;15.70;99.90
42099;DHT22;27758;55.900;8.516;2022-10-16T12:00:06;15.70;99.90
42099;DHT22;27758;55.900;8.516;2022-10-16T12:10:35;15.50;99.90
42099;DHT22;27758;55.900;8.516;2022-10-16T12:13:25;15.40;99.90
42099;DHT22;27758;55.900;8.516;2022-10-16T12:15:50;15.20;99.90
42099;DHT22;27758;55.900;8.516;2022-10-16T12:18:25;15.40;99.90
42099;DHT22;27758;55.900;8.516;2022-10-16T12:20:56;15.80;99.90
42099;DHT22;27758;55.900;8.516;2022-10-16T12:23:30;16.30;99.90
42099;DHT22;27758;55.900;8.516;2022-10-16T12:25:58;16.50;99.90
42099;DHT22;27758;55.900;8.516;2022-10-16T12:28:29;16.70;99.90
42099;DHT22;27758;55.900;8.516;2022-10-16T12:33:28;17.20;99.90
42099;DHT22;27758;55.900;8.516;2022-10-16T12:35:55;17.40;99.90
42099;DHT22;27758;55.900;8.516;2022-10-16T12:38:26;17.90;99.90
42099;DHT22;27758;55.900;8.516;2022-10-16T12:41:02;18.40;99.90
42099;DHT22;27758;55.900;8.516;2022-10-16T12:43:36;18.60;99.90
42099;DHT22;27758;55.900;8.516;2022-10-16T12:48:35;18.40;99.90
42099;DHT22;27758;55.900;8.516;2022-10-16T12:53:37;17.70;99.90
42099;DHT22;27758;55.900;8.516;2022-10-16T12:56:17;17.10;99.90
42099;DHT22;27758;55.900;8.516;2022-10-16T13:15:38;16.60;99.90
42099;DHT22;27758;55.900;8.516;2022-10-16T13:21:06;17.00;99.90
42099;DHT22;27758;55.900;8.516;2022-10-16T13:26:46;16.90;99.90
42099;DHT22;27758;55.900;8.516;2022-10-16T13:29:15;16.50;99.90
42099;DHT22;27758;55.900;8.516;2022-10-16T13:31:43;16.20;99.90
42099;DHT22;27758;55.900;8.516;2022-10-16T13:34:19;16.20;99.90
42099;DHT22;27758;55.900;8.516;2022-10-16T13:36:52;16.20;99.90
42099;DHT22;27758;55.900;8.516;2022-10-16T13:42:22;16.20;99.90
42099;DHT22;27758;55.900;8.516;2022-10-16T13:44:47;16.20;99.90
42099;DHT22;27758;55.900;8.516;2022-10-16T13:47:19;16.00;99.90
42099;DHT22;27758;55.900;8.516;2022-10-16T13:49:46;15.70;99.90
42099;DHT22;27758;55.900;8.516;2022-10-16T13:52:18;15.50;99.90
42099;DHT22;27758;55.900;8.516;2022-10-16T13:54:45;15.50;99.90
42099;DHT22;27758;55.900;8.516;2022-10-16T13:57:15;15.40;99.90
42099;DHT22;27758;55.900;8.516;2022-10-16T13:59:42;15.30;99.90
42099;DHT22;27758;55.900;8.516;2022-10-16T14:04:54;15.20;99.90
42099;DHT22;27758;55.900;8.516;2022-10-16T14:07:24;15.10;99.90
42099;DHT22;27758;55.900;8.516;2022-10-16T14:09:52;15.10;99.90
42099;DHT22;27758;55.900;8.516;2022-10-16T14:12:18;15.00;99.90
42099;DHT22;27758;55.900;8.516;2022-10-16T14:14:47;15.00;99.90
42099;DHT22;27758;55.900;8.516;2022-10-16T14:19:46;15.00;99.90
42099;DHT22;27758;55.900;8.516;2022-10-16T14:24:50;15.00;99.90
42099;DHT22;27758;55.900;8.516;2022-10-16T14:30:16;14.80;99.90
42099;DHT22;27758;55.900;8.516;2022-10-16T14:32:53;14.80;99.90
42099;DHT22;27758;55.900;8.516;2022-10-16T14:35:33;15.00;99.90
42099;DHT22;27758;55.900;8.516;2022-10-16T14:38:01;15.10;99.90
42099;DHT22;27758;55.900;8.516;2022-10-16T14:40:33;15.00;99.90
42099;DHT22;27758;55.900;8.516;2022-10-16T14:43:00;15.00;99.90
42099;DHT22;27758;55.900;8.516;2022-10-16T14:45:28;15.00;99.90
42099;DHT22;27758;55.900;8.516;2022-10-16T14:47:58;14.80;99.90
42099;DHT22;27758;55.900;8.516;2022-10-16T14:50:24;14.70;99.90
42099;DHT22;27758;55.900;8.516;2022-10-16T14:52:50;14.50;99.90
42099;DHT22;27758;55.900;8.516;2022-10-16T14:55:17;14.30;99.90
42099;DHT22;27758;55.900;8.516;2022-10-16T14:57:44;14.40;99.90
42099;DHT22;27758;55.900;8.516;2022-10-16T15:00:19;14.40;99.90
42099;DHT22;27758;55.900;8.516;2022-10-16T15:02:46;14.40;99.90
42099;DHT22;27758;55.900;8.516;2022-10-16T15:05:14;14.40;99.90
42099;DHT22;27758;55.900;8.516;2022-10-16T15:07:40;14.30;99.90
42099;DHT22;27758;55.900;8.516;2022-10-16T15:10:06;14.30;99.90
42099;DHT22;27758;55.900;8.516;2022-10-16T15:12:32;14.30;99.90
42099;DHT22;27758;55.900;8.516;2022-10-16T15:14:58;14.20;99.90
42099;DHT22;27758;55.900;8.516;2022-10-16T15:17:24;14.20;99.90
42099;DHT22;27758;55.900;8.516;2022-10-16T15:19:49;14.20;99.90
42099;DHT22;27758;55.900;8.516;2022-10-16T15:22:17;14.10;99.90
42099;DHT22;27758;55.900;8.516;2022-10-16T15:24:43;14.00;99.90
42099;DHT22;27758;55.900;8.516;2022-10-16T15:27:09;14.00;99.90
42099;DHT22;27758;55.900;8.516;2022-10-16T15:29:35;13.90;99.90
42099;DHT22;27758;55.900;8.516;2022-10-16T15:32:01;13.90;99.90
42099;DHT22;27758;55.900;8.516;2022-10-16T15:34:26;13.90;99.90
42099;DHT22;27758;55.900;8.516;2022-10-16T15:36:52;13.90;99.90
42099;DHT22;27758;55.900;8.516;2022-10-16T15:39:20;13.90;99.90
42099;DHT22;27758;55.900;8.516;2022-10-16T15:41:47;13.80;99.90
42099;DHT22;27758;55.900;8.516;2022-10-16T15:44:20;13.70;99.90
42099;DHT22;27758;55.900;8.516;2022-10-16T15:46:47;13.70;99.90
42099;DHT22;27758;55.900;8.516;2022-10-16T15:49:13;13.70;99.90
42099;DHT22;27758;55.900;8.516;2022-10-16T15:51:40;13.60;99.90
42099;DHT22;27758;55.900;8.516;2022-10-16T15:54:07;13.50;99.90
42099;DHT22;27758;55.900;8.516;2022-10-16T15:56:33;13.60;99.90
42099;DHT22;27758;55.900;8.516;2022-10-16T15:59:00;13.60;99.90
42099;DHT22;27758;55.900;8.516;2022-10-16T16:01:27;13.60;99.90
42099;DHT22;27758;55.900;8.516;2022-10-16T16:03:55;13.60;99.90
42099;DHT22;27758;55.900;8.516;2022-10-16T16:06:21;13.60;99.90
42099;DHT22;27758;55.900;8.516;2022-10-16T16:08:50;13.60;99.90
42099;DHT22;27758;55.900;8.516;2022-10-16T16:11:17;13.60;99.90
42099;DHT22;27758;55.900;8.516;2022-10-16T16:13:43;13.50;99.90
42099;DHT22;27758;55.900;8.516;2022-10-16T16:16:11;13.50;99.90
42099;DHT22;27758;55.900;8.516;2022-10-16T16:18:38;13.40;99.90
42099;DHT22;27758;55.900;8.516;2022-10-16T16:21:04;13.40;99.90
42099;DHT22;27758;55.900;8.516;2022-10-16T16:23:31;13.40;99.90
42099;DHT22;27758;55.900;8.516;2022-10-16T16:28:36;13.40;99.90
42099;DHT22;27758;55.900;8.516;2022-10-16T16:31:03;13.30;99.90
42099;DHT22;27758;55.900;8.516;2022-10-16T16:33:29;13.40;99.90
42099;DHT22;27758;55.900;8.516;2022-10-16T16:35:58;13.30;99.90
42099;DHT22;27758;55.900;8.516;2022-10-16T16:38:24;13.30;99.90
42099;DHT22;27758;55.900;8.516;2022-10-16T16:40:50;13.30;99.90
42099;DHT22;27758;55.900;8.516;2022-10-16T16:43:18;13.20;99.90
42099;DHT22;27758;55.900;8.516;2022-10-16T16:45:44;13.20;99.90
42099;DHT22;27758;55.900;8.516;2022-10-16T16:48:09;13.10;99.90
42099;DHT22;27758;55.900;8.516;2022-10-16T16:50:36;13.10;99.90
42099;DHT22;27758;55.900;8.516;2022-10-16T16:53:02;13.10;99.90
42099;DHT22;27758;55.900;8.516;2022-10-16T16:55:28;13.10;99.90
42099;DHT22;27758;55.900;8.516;2022-10-16T16:57:54;13.00;99.90
42099;DHT22;27758;55.900;8.516;2022-10-16T17:00:20;13.00;99.90
42099;DHT22;27758;55.900;8.516;2022-10-16T17:02:49;13.00;99.90
42099;DHT22;27758;55.900;8.516;2022-10-16T17:05:15;13.00;99.90
42099;DHT22;27758;55.900;8.516;2022-10-16T17:07:41;13.00;99.90
42099;DHT22;27758;55.900;8.516;2022-10-16T17:10:08;13.00;99.90
42099;DHT22;27758;55.900;8.516;2022-10-16T17:12:35;13.00;99.90
42099;DHT22;27758;55.900;8.516;2022-10-16T17:15:01;13.00;99.90
42099;DHT22;27758;55.900;8.516;2022-10-16T17:17:26;13.00;99.90
42099;DHT22;27758;55.900;8.516;2022-10-16T17:19:52;12.90;99.90
42099;DHT22;27758;55.900;8.516;2022-10-16T17:22:19;12.90;99.90
42099;DHT22;27758;55.900;8.516;2022-10-16T17:24:48;13.00;99.90
42099;DHT22;27758;55.900;8.516;2022-10-16T17:27:15;12.90;99.90
42099;DHT22;27758;55.900;8.516;2022-10-16T17:29:41;12.90;99.90
42099;DHT22;27758;55.900;8.516;2022-10-16T17:32:07;12.90;99.90
42099;DHT22;27758;55.900;8.516;2022-10-16T17:34:32;12.90;99.90
42099;DHT22;27758;55.900;8.516;2022-10-16T17:37:00;12.90;99.90
42099;DHT22;27758;55.900;8.516;2022-10-16T17:39:25;12.90;99.90
42099;DHT22;27758;55.900;8.516;2022-10-16T17:41:51;12.80;99.90
42099;DHT22;27758;55.900;8.516;2022-10-16T17:44:18;12.90;99.90
42099;DHT22;27758;55.900;8.516;2022-10-16T17:46:48;12.70;99.90
42099;DHT22;27758;55.900;8.516;2022-10-16T17:49:15;12.70;99.90
42099;DHT22;27758;55.900;8.516;2022-10-16T17:51:40;12.70;99.90
42099;DHT22;27758;55.900;8.516;2022-10-16T17:54:07;12.70;99.90
42099;DHT22;27758;55.900;8.516;2022-10-16T17:56:33;12.60;99.90